sensor_id;sensor_type;location;lat;lon;timestamp;pressure;altitude;pressure_sealevel;temperature;humidity
19576;BME280;41589;51.196;7.074;2023-04-22T00:04:01;98251.88;;;11.92;87.60
19576;BME280;41589;51.196;7.074;2023-04-22T00:09:02;98237.13;;;12.03;87.85
19576;BME280;41589;51.196;7.074;2023-04-22T00:14:02;98241.56;;;12.09;87.28
19576;BME280;41589;51.196;7.074;2023-04-22T00:19:03;98232.19;;;12.18;87.36
19576;BME280;41589;51.196;7.074;2023-04-22T00:24:04;98233.75;;;12.19;86.28
19576;BME280;41589;51.196;7.074;2023-04-22T00:29:05;98233.44;;;12.17;85.81
19576;BME280;41589;51.196;7.074;2023-04-22T00:34:05;98233.75;;;12.19;85.44
19576;BME280;41589;51.196;7.074;2023-04-22T00:39:05;98232.53;;;12.26;85.06
19576;BME280;41589;51.196;7.074;2023-04-22T00:44:10;98238.94;;;12.26;85.00
19576;BME280;41589;51.196;7.074;2023-04-22T00:49:11;98230.78;;;12.28;84.10
19576;BME280;41589;51.196;7.074;2023-04-22T00:54:11;98232.53;;;12.26;83.72
19576;BME280;41589;51.196;7.074;2023-04-22T00:59:12;98231.75;;;12.25;83.42
19576;BME280;41589;51.196;7.074;2023-04-22T01:04:12;98226.38;;;12.27;82.93
19576;BME280;41589;51.196;7.074;2023-04-22T01:09:14;98226.44;;;12.33;82.69
19576;BME280;41589;51.196;7.074;2023-04-22T01:14:14;98241.28;;;12.28;81.71
19576;BME280;41589;51.196;7.074;2023-04-22T01:19:15;98229.03;;;12.36;82.43
19576;BME280;41589;51.196;7.074;2023-04-22T01:24:15;98234.16;;;12.32;81.35
19576;BME280;41589;51.196;7.074;2023-04-22T01:29:16;98233.41;;;12.37;81.37
19576;BME280;41589;51.196;7.074;2023-04-22T01:34:16;98244.94;;;12.34;80.49
19576;BME280;41589;51.196;7.074;2023-04-22T01:39:17;98237.50;;;12.36;80.52
19576;BME280;41589;51.196;7.074;2023-04-22T01:44:17;98241.88;;;12.37;79.83
19576;BME280;41589;51.196;7.074;2023-04-22T01:49:18;98240.91;;;12.40;80.42
19576;BME280;41589;51.196;7.074;2023-04-22T01:54:19;98244.50;;;12.41;79.82
19576;BME280;41589;51.196;7.074;2023-04-22T01:59:20;98243.47;;;12.38;79.60
19576;BME280;41589;51.196;7.074;2023-04-22T02:04:21;98240.47;;;12.48;78.63
19576;BME280;41589;51.196;7.074;2023-04-22T02:09:21;98221.72;;;12.44;78.50
19576;BME280;41589;51.196;7.074;2023-04-22T02:14:24;98234.38;;;12.49;77.76
19576;BME280;41589;51.196;7.074;2023-04-22T02:19:25;98229.50;;;12.50;77.60
19576;BME280;41589;51.196;7.074;2023-04-22T02:24:26;98222.34;;;12.54;77.86
19576;BME280;41589;51.196;7.074;2023-04-22T02:29:26;98214.41;;;12.58;77.40
19576;BME280;41589;51.196;7.074;2023-04-22T02:34:30;98205.00;;;12.67;77.47
19576;BME280;41589;51.196;7.074;2023-04-22T02:39:31;98205.59;;;12.77;76.75
19576;BME280;41589;51.196;7.074;2023-04-22T02:44:32;98201.00;;;12.79;76.27
19576;BME280;41589;51.196;7.074;2023-04-22T02:49:32;98203.78;;;12.73;75.95
19576;BME280;41589;51.196;7.074;2023-04-22T02:54:32;98209.44;;;12.73;75.27
19576;BME280;41589;51.196;7.074;2023-04-22T02:59:33;98198.38;;;12.70;74.88
19576;BME280;41589;51.196;7.074;2023-04-22T03:04:34;98199.94;;;12.71;75.23
19576;BME280;41589;51.196;7.074;2023-04-22T03:09:34;98192.50;;;12.73;75.02
19576;BME280;41589;51.196;7.074;2023-04-22T03:14:35;98186.34;;;12.75;74.67
19576;BME280;41589;51.196;7.074;2023-04-22T03:19:35;98173.28;;;12.78;74.13
19576;BME280;41589;51.196;7.074;2023-04-22T03:24:37;98181.75;;;12.78;73.94
19576;BME280;41589;51.196;7.074;2023-04-22T03:29:40;98178.19;;;12.83;74.11
19576;BME280;41589;51.196;7.074;2023-04-22T03:34:41;98181.56;;;12.87;74.03
19576;BME280;41589;51.196;7.074;2023-04-22T03:39:43;98167.44;;;12.87;73.57
19576;BME280;41589;51.196;7.074;2023-04-22T03:44:44;98168.00;;;12.91;73.83
19576;BME280;41589;51.196;7.074;2023-04-22T03:49:46;98161.59;;;12.90;72.82
19576;BME280;41589;51.196;7.074;2023-04-22T03:54:46;98162.38;;;12.96;73.03
19576;BME280;41589;51.196;7.074;2023-04-22T03:59:47;98160.41;;;13.08;72.17
19576;BME280;41589;51.196;7.074;2023-04-22T04:04:49;98160.66;;;13.05;72.36
19576;BME280;41589;51.196;7.074;2023-04-22T04:09:50;98156.81;;;13.08;71.45
19576;BME280;41589;51.196;7.074;2023-04-22T04:14:50;98154.75;;;13.08;71.10
19576;BME280;41589;51.196;7.074;2023-04-22T04:19:53;98147.41;;;13.22;71.36
19576;BME280;41589;51.196;7.074;2023-04-22T04:24:55;98136.63;;;13.26;70.40
19576;BME280;41589;51.196;7.074;2023-04-22T04:29:59;98132.06;;;13.34;70.78
19576;BME280;41589;51.196;7.074;2023-04-22T04:35:10;98130.22;;;13.25;69.85
19576;BME280;41589;51.196;7.074;2023-04-22T04:40:14;98111.94;;;13.21;69.68
19576;BME280;41589;51.196;7.074;2023-04-22T04:45:25;98126.06;;;13.21;69.62
19576;BME280;41589;51.196;7.074;2023-04-22T04:50:26;98114.22;;;13.17;68.95
19576;BME280;41589;51.196;7.074;2023-04-22T04:55:27;98119.94;;;13.22;68.99
19576;BME280;41589;51.196;7.074;2023-04-22T05:00:29;98121.75;;;13.31;68.54
19576;BME280;41589;51.196;7.074;2023-04-22T05:05:30;98126.91;;;13.33;68.29
19576;BME280;41589;51.196;7.074;2023-04-22T05:10:31;98113.56;;;13.39;68.38
19576;BME280;41589;51.196;7.074;2023-04-22T05:15:32;98105.44;;;13.57;67.80
19576;BME280;41589;51.196;7.074;2023-04-22T05:20:32;98114.78;;;13.69;67.09
19576;BME280;41589;51.196;7.074;2023-04-22T05:25:33;98125.09;;;13.78;66.32
19576;BME280;41589;51.196;7.074;2023-04-22T05:30:39;98116.59;;;13.83;66.45
19576;BME280;41589;51.196;7.074;2023-04-22T05:35:40;98121.03;;;13.96;65.90
19576;BME280;41589;51.196;7.074;2023-04-22T05:40:41;98137.53;;;14.08;65.85
19576;BME280;41589;51.196;7.074;2023-04-22T05:45:45;98137.28;;;14.23;65.64
19576;BME280;41589;51.196;7.074;2023-04-22T05:50:48;98122.16;;;14.49;65.28
19576;BME280;41589;51.196;7.074;2023-04-22T05:55:49;98130.91;;;14.56;65.00
19576;BME280;41589;51.196;7.074;2023-04-22T06:00:49;98135.78;;;14.67;64.27
19576;BME280;41589;51.196;7.074;2023-04-22T06:06:19;98138.41;;;14.76;63.21
19576;BME280;41589;51.196;7.074;2023-04-22T06:11:21;98134.00;;;14.86;63.67
19576;BME280;41589;51.196;7.074;2023-04-22T06:16:21;98131.16;;;14.97;62.08
19576;BME280;41589;51.196;7.074;2023-04-22T06:21:22;98135.78;;;15.17;61.77
19576;BME280;41589;51.196;7.074;2023-04-22T06:26:23;98128.78;;;15.41;61.81
19576;BME280;41589;51.196;7.074;2023-04-22T06:31:24;98129.28;;;15.45;60.34
19576;BME280;41589;51.196;7.074;2023-04-22T06:36:25;98127.19;;;15.56;60.13
19576;BME280;41589;51.196;7.074;2023-04-22T06:41:32;98124.38;;;15.51;58.97
19576;BME280;41589;51.196;7.074;2023-04-22T06:46:38;98126.09;;;15.71;60.06
19576;BME280;41589;51.196;7.074;2023-04-22T06:52:05;98127.06;;;16.31;59.25
19576;BME280;41589;51.196;7.074;2023-04-22T06:57:06;98130.41;;;16.77;59.26
19576;BME280;41589;51.196;7.074;2023-04-22T07:02:08;98117.00;;;17.26;56.12
19576;BME280;41589;51.196;7.074;2023-04-22T07:07:12;98109.53;;;17.72;55.73
19576;BME280;41589;51.196;7.074;2023-04-22T07:12:13;98120.25;;;18.22;54.44
19576;BME280;41589;51.196;7.074;2023-04-22T07:17:14;98110.34;;;18.61;53.43
19576;BME280;41589;51.196;7.074;2023-04-22T07:22:15;98106.50;;;18.90;50.77
19576;BME280;41589;51.196;7.074;2023-04-22T07:27:18;98111.03;;;18.99;51.17
19576;BME280;41589;51.196;7.074;2023-04-22T07:32:19;98103.28;;;18.67;50.17
19576;BME280;41589;51.196;7.074;2023-04-22T07:37:20;98109.91;;;18.57;50.75
19576;BME280;41589;51.196;7.074;2023-04-22T07:42:21;98105.78;;;19.16;50.00
19576;BME280;41589;51.196;7.074;2023-04-22T07:47:22;98094.97;;;19.28;49.54
19576;BME280;41589;51.196;7.074;2023-04-22T07:52:23;98100.56;;;19.73;48.02
19576;BME280;41589;51.196;7.074;2023-04-22T07:57:26;98094.25;;;20.14;46.76
19576;BME280;41589;51.196;7.074;2023-04-22T08:02:26;98079.53;;;20.44;46.00
19576;BME280;41589;51.196;7.074;2023-04-22T08:07:27;98077.72;;;20.55;45.96
19576;BME280;41589;51.196;7.074;2023-04-22T08:12:27;98074.69;;;20.81;45.05
19576;BME280;41589;51.196;7.074;2023-04-22T08:17:27;98075.28;;;21.00;43.89
19576;BME280;41589;51.196;7.074;2023-04-22T08:22:28;98068.94;;;21.51;44.58
19576;BME280;41589;51.196;7.074;2023-04-22T08:27:28;98056.69;;;21.43;41.87
19576;BME280;41589;51.196;7.074;2023-04-22T08:32:29;98063.22;;;21.51;42.46
19576;BME280;41589;51.196;7.074;2023-04-22T08:37:29;98061.06;;;21.73;42.00
19576;BME280;41589;51.196;7.074;2023-04-22T08:42:30;98046.41;;;21.76;40.98
19576;BME280;41589;51.196;7.074;2023-04-22T08:47:31;98052.22;;;21.99;40.91
19576;BME280;41589;51.196;7.074;2023-04-22T08:52:34;98052.78;;;21.98;40.48
19576;BME280;41589;51.196;7.074;2023-04-22T08:57:37;98039.78;;;22.04;40.72
19576;BME280;41589;51.196;7.074;2023-04-22T09:02:40;98035.59;;;21.98;40.02
19576;BME280;41589;51.196;7.074;2023-04-22T09:07:44;98030.84;;;22.15;39.84
19576;BME280;41589;51.196;7.074;2023-04-22T09:12:45;98027.47;;;22.32;39.67
19576;BME280;41589;51.196;7.074;2023-04-22T09:17:52;98025.22;;;23.07;38.88
19576;BME280;41589;51.196;7.074;2023-04-22T09:22:55;98019.00;;;23.49;37.80
19576;BME280;41589;51.196;7.074;2023-04-22T09:27:57;98028.41;;;23.42;37.19
19576;BME280;41589;51.196;7.074;2023-04-22T09:33:00;98016.88;;;23.65;36.71
19576;BME280;41589;51.196;7.074;2023-04-22T09:38:03;98011.63;;;23.86;36.19
19576;BME280;41589;51.196;7.074;2023-04-22T09:43:06;98004.97;;;24.16;35.19
19576;BME280;41589;51.196;7.074;2023-04-22T09:48:11;98010.97;;;24.03;34.79
19576;BME280;41589;51.196;7.074;2023-04-22T09:53:19;98016.19;;;23.97;35.12
19576;BME280;41589;51.196;7.074;2023-04-22T09:58:20;98014.00;;;24.05;34.15
19576;BME280;41589;51.196;7.074;2023-04-22T10:03:23;98016.66;;;23.78;34.37
19576;BME280;41589;51.196;7.074;2023-04-22T10:08:23;98011.56;;;23.46;34.83
19576;BME280;41589;51.196;7.074;2023-04-22T10:13:24;98020.94;;;23.46;34.59
19576;BME280;41589;51.196;7.074;2023-04-22T10:18:26;98018.94;;;23.79;35.11
19576;BME280;41589;51.196;7.074;2023-04-22T10:23:31;98007.50;;;23.56;34.23
19576;BME280;41589;51.196;7.074;2023-04-22T10:28:32;98011.72;;;23.55;34.69
19576;BME280;41589;51.196;7.074;2023-04-22T10:33:36;98019.34;;;23.60;34.83
19576;BME280;41589;51.196;7.074;2023-04-22T10:44:05;98022.94;;;22.83;35.04
19576;BME280;41589;51.196;7.074;2023-04-22T10:49:28;98029.38;;;22.37;36.47
19576;BME280;41589;51.196;7.074;2023-04-22T10:59:28;98026.25;;;22.12;37.49
19576;BME280;41589;51.196;7.074;2023-04-22T11:04:28;98021.78;;;22.40;37.66
19576;BME280;41589;51.196;7.074;2023-04-22T11:09:29;98021.78;;;22.63;37.65
19576;BME280;41589;51.196;7.074;2023-04-22T11:14:31;98033.06;;;22.91;37.18
19576;BME280;41589;51.196;7.074;2023-04-22T11:19:32;98031.69;;;23.38;37.34
19576;BME280;41589;51.196;7.074;2023-04-22T11:24:32;98035.06;;;23.75;36.26
19576;BME280;41589;51.196;7.074;2023-04-22T11:29:32;98026.81;;;23.71;36.09
19576;BME280;41589;51.196;7.074;2023-04-22T11:34:33;98022.38;;;23.85;36.03
19576;BME280;41589;51.196;7.074;2023-04-22T11:39:37;98016.88;;;23.57;35.87
19576;BME280;41589;51.196;7.074;2023-04-22T11:44:38;98029.63;;;23.23;35.70
19576;BME280;41589;51.196;7.074;2023-04-22T11:49:38;98022.19;;;23.13;35.93
19576;BME280;41589;51.196;7.074;2023-04-22T11:54:41;98035.31;;;23.31;36.02
19576;BME280;41589;51.196;7.074;2023-04-22T11:59:42;98030.75;;;23.36;35.77
19576;BME280;41589;51.196;7.074;2023-04-22T12:04:43;98030.78;;;23.13;35.37
19576;BME280;41589;51.196;7.074;2023-04-22T12:09:43;98026.94;;;22.72;35.09
19576;BME280;41589;51.196;7.074;2023-04-22T12:14:44;98025.97;;;22.54;36.58
19576;BME280;41589;51.196;7.074;2023-04-22T12:19:46;98037.66;;;23.17;37.23
19576;BME280;41589;51.196;7.074;2023-04-22T12:24:47;98040.53;;;23.25;36.73
19576;BME280;41589;51.196;7.074;2023-04-22T12:29:55;98038.41;;;22.87;35.97
19576;BME280;41589;51.196;7.074;2023-04-22T12:34:58;98028.28;;;22.71;36.38
19576;BME280;41589;51.196;7.074;2023-04-22T12:39:59;98025.41;;;22.63;36.73
19576;BME280;41589;51.196;7.074;2023-04-22T12:45:00;98036.88;;;22.56;37.29
19576;BME280;41589;51.196;7.074;2023-04-22T12:50:00;98039.94;;;22.88;37.71
19576;BME280;41589;51.196;7.074;2023-04-22T12:55:05;98036.50;;;22.90;36.82
19576;BME280;41589;51.196;7.074;2023-04-22T13:00:07;98026.00;;;23.23;37.84
19576;BME280;41589;51.196;7.074;2023-04-22T13:05:14;98039.13;;;23.41;36.50
19576;BME280;41589;51.196;7.074;2023-04-22T13:10:15;98034.38;;;23.28;37.31
19576;BME280;41589;51.196;7.074;2023-04-22T13:15:19;98024.25;;;23.27;37.25
19576;BME280;41589;51.196;7.074;2023-04-22T13:20:20;98024.81;;;23.26;36.73
19576;BME280;41589;51.196;7.074;2023-04-22T13:25:21;98029.84;;;23.02;36.98
19576;BME280;41589;51.196;7.074;2023-04-22T13:30:26;98018.34;;;22.72;36.65
19576;BME280;41589;51.196;7.074;2023-04-22T13:35:27;98017.00;;;22.58;38.38
19576;BME280;41589;51.196;7.074;2023-04-22T13:40:27;98034.50;;;22.24;38.37
19576;BME280;41589;51.196;7.074;2023-04-22T13:45:28;98019.38;;;22.15;38.90
19576;BME280;41589;51.196;7.074;2023-04-22T13:50:29;98030.44;;;22.04;39.08
19576;BME280;41589;51.196;7.074;2023-04-22T13:55:30;98045.22;;;21.72;39.64
19576;BME280;41589;51.196;7.074;2023-04-22T14:00:32;98044.94;;;21.26;41.41
19576;BME280;41589;51.196;7.074;2023-04-22T14:05:32;98060.91;;;20.72;44.01
19576;BME280;41589;51.196;7.074;2023-04-22T14:10:32;98067.13;;;20.42;45.40
19576;BME280;41589;51.196;7.074;2023-04-22T14:15:33;98064.75;;;20.19;47.20
19576;BME280;41589;51.196;7.074;2023-04-22T14:20:34;98059.69;;;19.92;49.16
19576;BME280;41589;51.196;7.074;2023-04-22T14:25:35;98066.94;;;19.79;50.38
19576;BME280;41589;51.196;7.074;2023-04-22T14:30:35;98065.34;;;19.57;51.40
19576;BME280;41589;51.196;7.074;2023-04-22T14:35:36;98064.03;;;19.32;51.73
19576;BME280;41589;51.196;7.074;2023-04-22T14:40:37;98064.16;;;19.26;52.48
19576;BME280;41589;51.196;7.074;2023-04-22T14:45:41;98047.31;;;19.23;53.33
19576;BME280;41589;51.196;7.074;2023-04-22T14:50:42;98063.53;;;19.15;53.91
19576;BME280;41589;51.196;7.074;2023-04-22T14:55:43;98050.28;;;19.17;53.74
19576;BME280;41589;51.196;7.074;2023-04-22T15:00:47;98054.97;;;19.15;54.05
19576;BME280;41589;51.196;7.074;2023-04-22T15:05:48;98054.56;;;19.11;54.10
19576;BME280;41589;51.196;7.074;2023-04-22T15:10:52;98053.34;;;19.06;54.41
19576;BME280;41589;51.196;7.074;2023-04-22T15:15:53;98047.09;;;19.08;54.44
19576;BME280;41589;51.196;7.074;2023-04-22T15:20:57;98053.94;;;19.31;54.64
19576;BME280;41589;51.196;7.074;2023-04-22T15:25:58;98052.38;;;19.43;55.12
19576;BME280;41589;51.196;7.074;2023-04-22T15:31:02;98056.88;;;19.52;55.19
19576;BME280;41589;51.196;7.074;2023-04-22T15:36:05;98066.34;;;19.47;54.93
19576;BME280;41589;51.196;7.074;2023-04-22T15:41:08;98072.69;;;19.40;55.01
19576;BME280;41589;51.196;7.074;2023-04-22T15:46:11;98067.84;;;19.35;55.54
19576;BME280;41589;51.196;7.074;2023-04-22T15:51:16;98062.56;;;19.12;55.71
19576;BME280;41589;51.196;7.074;2023-04-22T15:56:24;98046.53;;;18.96;56.80
19576;BME280;41589;51.196;7.074;2023-04-22T16:01:31;98048.03;;;18.84;57.10
19576;BME280;41589;51.196;7.074;2023-04-22T16:06:34;98044.72;;;18.66;57.71
19576;BME280;41589;51.196;7.074;2023-04-22T16:11:38;98042.38;;;18.52;57.82
19576;BME280;41589;51.196;7.074;2023-04-22T16:16:41;98046.81;;;18.34;58.29
19576;BME280;41589;51.196;7.074;2023-04-22T16:21:45;98064.59;;;18.21;58.86
19576;BME280;41589;51.196;7.074;2023-04-22T16:26:49;98048.44;;;18.10;59.76
19576;BME280;41589;51.196;7.074;2023-04-22T16:31:50;98053.69;;;17.87;60.47
19576;BME280;41589;51.196;7.074;2023-04-22T16:36:51;98055.38;;;17.77;61.50
19576;BME280;41589;51.196;7.074;2023-04-22T16:41:52;98042.72;;;17.59;62.42
19576;BME280;41589;51.196;7.074;2023-04-22T16:46:56;98056.44;;;17.55;63.12
19576;BME280;41589;51.196;7.074;2023-04-22T16:52:02;98057.41;;;17.39;64.45
19576;BME280;41589;51.196;7.074;2023-04-22T16:57:03;98063.91;;;17.34;65.40
19576;BME280;41589;51.196;7.074;2023-04-22T17:02:04;98060.91;;;17.26;66.04
19576;BME280;41589;51.196;7.074;2023-04-22T17:07:08;98055.56;;;17.17;66.92
19576;BME280;41589;51.196;7.074;2023-04-22T17:12:08;98062.06;;;17.18;67.50
19576;BME280;41589;51.196;7.074;2023-04-22T17:17:14;98061.34;;;17.12;68.03
19576;BME280;41589;51.196;7.074;2023-04-22T17:22:15;98069.41;;;17.08;68.62
19576;BME280;41589;51.196;7.074;2023-04-22T17:27:18;98076.34;;;17.07;69.29
19576;BME280;41589;51.196;7.074;2023-04-22T17:32:19;98077.78;;;16.94;70.08
19576;BME280;41589;51.196;7.074;2023-04-22T17:37:23;98073.63;;;16.95;70.41
19576;BME280;41589;51.196;7.074;2023-04-22T17:42:24;98065.94;;;16.90;70.96
19576;BME280;41589;51.196;7.074;2023-04-22T17:47:24;98068.72;;;16.96;71.12
19576;BME280;41589;51.196;7.074;2023-04-22T17:52:25;98073.94;;;16.92;71.34
19576;BME280;41589;51.196;7.074;2023-04-22T17:57:29;98086.41;;;16.83;71.96
19576;BME280;41589;51.196;7.074;2023-04-22T18:02:30;98084.41;;;16.78;72.30
19576;BME280;41589;51.196;7.074;2023-04-22T18:07:31;98088.13;;;16.67;72.70
19576;BME280;41589;51.196;7.074;2023-04-22T18:12:35;98089.75;;;16.52;73.21
19576;BME280;41589;51.196;7.074;2023-04-22T18:17:38;98092.13;;;16.48;73.70
19576;BME280;41589;51.196;7.074;2023-04-22T18:22:40;98095.75;;;16.42;74.01
19576;BME280;41589;51.196;7.074;2023-04-22T18:27:44;98096.81;;;16.39;74.55
19576;BME280;41589;51.196;7.074;2023-04-22T18:32:44;98092.59;;;16.16;75.48
19576;BME280;41589;51.196;7.074;2023-04-22T18:37:45;98093.81;;;15.85;81.58
19576;BME280;41589;51.196;7.074;2023-04-22T18:42:46;98091.56;;;15.61;88.68
19576;BME280;41589;51.196;7.074;2023-04-22T18:47:48;98095.78;;;15.38;94.00
19576;BME280;41589;51.196;7.074;2023-04-22T18:52:48;98102.53;;;15.23;98.26
19576;BME280;41589;51.196;7.074;2023-04-22T18:57:49;98105.13;;;15.16;100.00
19576;BME280;41589;51.196;7.074;2023-04-22T19:02:50;98106.69;;;15.11;100.00
19576;BME280;41589;51.196;7.074;2023-04-22T19:07:50;98103.09;;;14.94;100.00
19576;BME280;41589;51.196;7.074;2023-04-22T19:12:51;98111.09;;;14.95;100.00
19576;BME280;41589;51.196;7.074;2023-04-22T19:17:51;98112.09;;;14.98;100.00
19576;BME280;41589;51.196;7.074;2023-04-22T19:22:51;98116.75;;;14.95;100.00
19576;BME280;41589;51.196;7.074;2023-04-22T19:27:52;98112.88;;;14.87;100.00
19576;BME280;41589;51.196;7.074;2023-04-22T19:32:53;98099.00;;;14.84;100.00
19576;BME280;41589;51.196;7.074;2023-04-22T19:37:54;98102.09;;;14.80;100.00
19576;BME280;41589;51.196;7.074;2023-04-22T19:42:54;98101.56;;;14.76;100.00
19576;BME280;41589;51.196;7.074;2023-04-22T19:47:55;98099.25;;;14.74;100.00
19576;BME280;41589;51.196;7.074;2023-04-22T19:53:00;98130.38;;;14.52;100.00
19576;BME280;41589;51.196;7.074;2023-04-22T19:58:04;98144.25;;;14.22;100.00
19576;BME280;41589;51.196;7.074;2023-04-22T20:03:05;98146.75;;;13.98;100.00
19576;BME280;41589;51.196;7.074;2023-04-22T20:08:06;98152.84;;;13.79;100.00
19576;BME280;41589;51.196;7.074;2023-04-22T20:13:08;98158.38;;;13.57;100.00
19576;BME280;41589;51.196;7.074;2023-04-22T20:18:08;98153.41;;;13.35;100.00
19576;BME280;41589;51.196;7.074;2023-04-22T20:23:09;98172.41;;;13.35;100.00
19576;BME280;41589;51.196;7.074;2023-04-22T20:28:11;98163.63;;;13.27;100.00
19576;BME280;41589;51.196;7.074;2023-04-22T20:33:12;98162.03;;;13.20;100.00
19576;BME280;41589;51.196;7.074;2023-04-22T20:38:17;98165.28;;;13.08;100.00
19576;BME280;41589;51.196;7.074;2023-04-22T20:43:24;98162.44;;;13.02;100.00
19576;BME280;41589;51.196;7.074;2023-04-22T20:48:26;98170.13;;;13.01;100.00
19576;BME280;41589;51.196;7.074;2023-04-22T20:53:27;98174.44;;;12.97;100.00
19576;BME280;41589;51.196;7.074;2023-04-22T20:58:31;98170.84;;;12.96;100.00
19576;BME280;41589;51.196;7.074;2023-04-22T21:03:34;98171.09;;;12.93;100.00
19576;BME280;41589;51.196;7.074;2023-04-22T21:08:35;98171.28;;;12.84;100.00
19576;BME280;41589;51.196;7.074;2023-04-22T21:13:36;98168.69;;;12.80;100.00
19576;BME280;41589;51.196;7.074;2023-04-22T21:18:38;98175.28;;;12.71;100.00
19576;BME280;41589;51.196;7.074;2023-04-22T21:23:39;98180.97;;;12.77;100.00
19576;BME280;41589;51.196;7.074;2023-04-22T21:28:43;98177.69;;;12.53;100.00
19576;BME280;41589;51.196;7.074;2023-04-22T21:33:44;98182.63;;;12.37;100.00
19576;BME280;41589;51.196;7.074;2023-04-22T21:38:45;98189.16;;;12.23;100.00
19576;BME280;41589;51.196;7.074;2023-04-22T21:43:46;98193.78;;;12.26;100.00
19576;BME280;41589;51.196;7.074;2023-04-22T21:48:46;98196.47;;;12.35;100.00
19576;BME280;41589;51.196;7.074;2023-04-22T21:53:46;98197.06;;;12.19;100.00
19576;BME280;41589;51.196;7.074;2023-04-22T21:58:47;98205.41;;;12.08;100.00
19576;BME280;41589;51.196;7.074;2023-04-22T22:03:47;98204.97;;;11.95;100.00
19576;BME280;41589;51.196;7.074;2023-04-22T22:08:47;98203.94;;;11.92;100.00
19576;BME280;41589;51.196;7.074;2023-04-22T22:13:48;98204.91;;;11.69;100.00
19576;BME280;41589;51.196;7.074;2023-04-22T22:18:49;98204.41;;;11.70;100.00
19576;BME280;41589;51.196;7.074;2023-04-22T22:23:50;98203.56;;;11.64;100.00
19576;BME280;41589;51.196;7.074;2023-04-22T22:28:51;98212.50;;;11.63;100.00
19576;BME280;41589;51.196;7.074;2023-04-22T22:33:51;98209.63;;;11.57;100.00
19576;BME280;41589;51.196;7.074;2023-04-22T22:38:51;98218.38;;;11.59;100.00
19576;BME280;41589;51.196;7.074;2023-04-22T22:43:52;98225.69;;;11.51;100.00
19576;BME280;41589;51.196;7.074;2023-04-22T22:48:52;98213.56;;;11.45;100.00
19576;BME280;41589;51.196;7.074;2023-04-22T22:53:53;98225.13;;;11.47;100.00
19576;BME280;41589;51.196;7.074;2023-04-22T22:58:54;98226.50;;;11.37;100.00
19576;BME280;41589;51.196;7.074;2023-04-22T23:03:54;98225.31;;;11.43;100.00
19576;BME280;41589;51.196;7.074;2023-04-22T23:08:54;98225.91;;;11.47;100.00
19576;BME280;41589;51.196;7.074;2023-04-22T23:13:56;98229.03;;;11.35;100.00
19576;BME280;41589;51.196;7.074;2023-04-22T23:18:57;98230.25;;;11.48;100.00
19576;BME280;41589;51.196;7.074;2023-04-22T23:23:58;98240.06;;;11.53;100.00
19576;BME280;41589;51.196;7.074;2023-04-22T23:28:59;98235.63;;;11.46;100.00
19576;BME280;41589;51.196;7.074;2023-04-22T23:34:00;98230.25;;;11.48;100.00
19576;BME280;41589;51.196;7.074;2023-04-22T23:39:05;98223.19;;;11.38;100.00
19576;BME280;41589;51.196;7.074;2023-04-22T23:44:09;98222.09;;;11.50;100.00
19576;BME280;41589;51.196;7.074;2023-04-22T23:49:09;98210.19;;;11.61;100.00
19576;BME280;41589;51.196;7.074;2023-04-22T23:54:10;98206.53;;;11.75;100.00
19576;BME280;41589;51.196;7.074;2023-04-22T23:59:10;98200.75;;;11.84;100.00
